createdAt,value
2019-02-12T00:00:42.829Z,7.87
2019-02-12T00:03:48.609Z,8.26
2019-02-12T00:06:54.387Z,8.08
2019-02-12T00:10:00.344Z,8.25
2019-02-12T00:13:06.612Z,8.05
2019-02-12T00:16:12.366Z,8.07
2019-02-12T00:19:18.159Z,8.08
2019-02-12T00:22:24.029Z,8.10
2019-02-12T00:25:29.794Z,8.20
2019-02-12T00:28:35.636Z,8.09
2019-02-12T00:31:41.410Z,8.35
2019-02-12T00:34:48.074Z,8.23
2019-02-12T00:37:53.891Z,8.09
2019-02-12T00:40:59.696Z,8.32
2019-02-12T00:44:08.255Z,8.25
2019-02-12T00:47:14.027Z,8.29
2019-02-12T00:50:19.803Z,8.43
2019-02-12T00:53:25.592Z,8.39
2019-02-12T00:56:32.413Z,8.23
2019-02-12T00:59:38.245Z,8.29
2019-02-12T01:02:44.126Z,8.36
2019-02-12T01:05:49.895Z,8.45
2019-02-12T01:08:55.753Z,8.30
2019-02-12T01:12:01.640Z,8.42
2019-02-12T01:15:09.570Z,8.57
2019-02-12T01:18:15.560Z,8.37
2019-02-12T01:21:26.165Z,8.42
2019-02-12T01:24:28.942Z,8.44
2019-02-12T01:27:34.801Z,8.50
2019-02-12T01:30:40.663Z,8.67
2019-02-12T01:33:46.416Z,8.65
2019-02-12T01:36:52.193Z,8.68
2019-02-12T01:39:57.975Z,8.34
2019-02-12T01:43:03.776Z,8.60
2019-02-12T01:46:09.559Z,8.77
2019-02-12T01:49:15.339Z,8.60
2019-02-12T01:52:21.119Z,8.31
2019-02-12T01:55:26.901Z,8.48
2019-02-12T01:58:32.760Z,8.41
2019-02-12T02:01:38.552Z,8.45
2019-02-12T02:04:44.351Z,8.40
2019-02-12T02:07:50.137Z,8.38
2019-02-12T02:10:55.911Z,8.51
2019-02-12T02:14:01.680Z,8.52
2019-02-12T02:17:07.477Z,8.45
2019-02-12T02:20:14.163Z,8.54
2019-02-12T02:23:20.059Z,8.61
2019-02-12T02:26:25.856Z,8.69
2019-02-12T02:29:31.722Z,8.69
2019-02-12T02:32:37.577Z,8.75
2019-02-12T02:35:43.381Z,8.56
2019-02-12T02:38:49.166Z,8.61
2019-02-12T02:41:55.543Z,8.43
2019-02-12T02:45:01.350Z,8.34
2019-02-12T02:48:07.575Z,8.34
2019-02-12T02:51:13.369Z,8.32
2019-02-12T02:54:19.197Z,8.30
2019-02-12T02:57:24.955Z,8.12
2019-02-12T03:00:30.713Z,8.23
2019-02-12T03:03:36.618Z,8.19
2019-02-12T03:06:42.489Z,8.20
2019-02-12T03:09:49.361Z,8.06
2019-02-12T03:12:55.208Z,8.25
2019-02-12T03:16:01.037Z,8.25
2019-02-12T03:19:06.787Z,8.43
2019-02-12T03:22:12.601Z,8.26
2019-02-12T03:25:18.357Z,8.70
2019-02-12T03:28:24.117Z,8.39
2019-02-12T03:31:29.967Z,8.17
2019-02-12T03:34:35.745Z,8.04
2019-02-12T03:37:41.635Z,8.01
2019-02-12T03:40:47.389Z,8.20
2019-02-12T03:43:53.173Z,8.43
2019-02-12T03:46:58.978Z,8.21
2019-02-12T03:50:04.902Z,8.09
2019-02-12T03:53:10.777Z,8.13
2019-02-12T03:56:16.520Z,8.08
2019-02-12T03:59:22.377Z,8.19
2019-02-12T04:02:28.208Z,7.93
2019-02-12T04:05:34.214Z,7.79
2019-02-12T04:08:40.007Z,7.92
2019-02-12T04:11:45.894Z,7.75
2019-02-12T04:14:51.678Z,7.78
2019-02-12T04:17:57.434Z,7.90
2019-02-12T04:21:03.335Z,7.50
2019-02-12T04:24:09.111Z,7.69
2019-02-12T04:27:14.921Z,8.04
2019-02-12T04:30:20.707Z,7.73
2019-02-12T04:33:26.480Z,7.83
2019-02-12T04:36:32.304Z,7.89
2019-02-12T04:39:39.095Z,7.67
2019-02-12T04:42:44.894Z,7.55
2019-02-12T04:45:50.649Z,7.70
2019-02-12T04:49:04.871Z,7.69
2019-02-12T04:52:13.454Z,7.87
2019-02-12T04:55:19.354Z,7.65
2019-02-12T04:58:25.086Z,7.70
2019-02-12T05:01:30.837Z,7.98
2019-02-12T05:04:36.566Z,7.72
2019-02-12T05:07:42.397Z,7.98
2019-02-12T05:10:56.823Z,7.99
2019-02-12T05:14:02.576Z,7.95
2019-02-12T05:17:08.309Z,8.05
2019-02-12T05:20:14.554Z,7.72
2019-02-12T05:23:20.357Z,7.93
2019-02-12T05:26:26.099Z,8.13
2019-02-12T05:29:32.019Z,7.97
2019-02-12T05:32:37.806Z,7.74
2019-02-12T05:35:43.557Z,7.80
2019-02-12T05:38:49.421Z,7.94
2019-02-12T05:41:55.183Z,8.19
2019-02-12T05:45:00.953Z,8.29
2019-02-12T05:48:06.760Z,8.34
2019-02-12T05:51:12.641Z,8.22
2019-02-12T05:54:18.422Z,8.47
2019-02-12T05:57:24.183Z,8.31
2019-02-12T06:00:32.478Z,8.35
2019-02-12T06:03:38.259Z,8.24
2019-02-12T06:06:44.022Z,8.17
2019-02-12T06:09:49.844Z,8.32
2019-02-12T06:12:55.690Z,8.24
2019-02-12T06:16:01.442Z,8.38
2019-02-12T06:19:07.194Z,8.53
2019-02-12T06:22:12.954Z,8.61
2019-02-12T06:25:18.972Z,8.63
2019-02-12T06:28:24.732Z,8.83
2019-02-12T06:31:30.502Z,8.71
2019-02-12T06:34:36.237Z,8.95
2019-02-12T06:37:41.996Z,9.03
2019-02-12T06:40:47.789Z,8.78
2019-02-12T06:43:53.532Z,9.08
2019-02-12T06:46:59.299Z,9.45
2019-02-12T06:50:05.545Z,9.26
2019-02-12T06:53:12.745Z,9.36
2019-02-12T06:56:18.793Z,9.35
2019-02-12T06:59:24.553Z,9.39
2019-02-12T07:03:05.913Z,9.40
2019-02-12T07:06:39.953Z,9.16
2019-02-12T07:09:49.807Z,9.52
2019-02-12T07:13:39.553Z,9.30
2019-02-12T07:17:12.276Z,9.30
2019-02-12T07:20:45.604Z,9.55
2019-02-12T07:24:31.763Z,9.64
2019-02-12T07:28:20.356Z,9.46
2019-02-12T07:32:18.916Z,9.42
2019-02-12T07:35:51.835Z,9.39
2019-02-12T07:39:09.991Z,9.48
2019-02-12T07:42:55.526Z,9.17
2019-02-12T07:46:30.424Z,9.33
2019-02-12T07:50:10.878Z,9.35
2019-02-12T07:53:40.389Z,9.69
2019-02-12T07:57:31.431Z,9.95
2019-02-12T08:01:26.073Z,9.96
2019-02-12T08:05:29.348Z,9.88
2019-02-12T08:09:11.513Z,9.97
2019-02-12T08:12:43.824Z,9.91
2019-02-12T08:16:29.742Z,9.85
2019-02-12T08:20:12.880Z,9.71
2019-02-12T08:23:56.381Z,9.95
2019-02-12T08:27:27.906Z,9.85
2019-02-12T08:31:01.368Z,10.03
2019-02-12T08:34:45.062Z,10.12
2019-02-12T08:38:27.136Z,9.99
2019-02-12T08:42:01.838Z,10.23
2019-02-12T08:45:42.880Z,10.44
2019-02-12T08:49:18.202Z,10.43
2019-02-12T08:52:54.211Z,10.38
2019-02-12T08:56:34.846Z,10.48
2019-02-12T09:00:06.840Z,9.97
2019-02-12T09:04:09.576Z,10.30
2019-02-12T09:07:29.883Z,10.71
2019-02-12T09:11:08.847Z,11.00
2019-02-12T09:14:51.245Z,10.94
2019-02-12T09:18:39.911Z,10.85
2019-02-12T09:22:12.682Z,10.91
2019-02-12T09:25:55.793Z,10.85
2019-02-12T09:29:29.732Z,11.01
2019-02-12T09:33:00.496Z,11.23
2019-02-12T09:36:43.844Z,10.96
2019-02-12T09:40:35.352Z,11.31
2019-02-12T09:44:13.772Z,11.48
2019-02-12T09:47:55.875Z,12.09
2019-02-12T09:51:29.371Z,11.99
2019-02-12T09:55:31.400Z,12.43
2019-02-12T09:59:04.253Z,12.91
2019-02-12T10:02:54.980Z,13.36
2019-02-12T10:06:21.320Z,13.79
2019-02-12T10:09:48.989Z,13.41
2019-02-12T10:13:29.737Z,13.45
2019-02-12T10:17:19.026Z,13.22
2019-02-12T10:20:46.774Z,12.77
2019-02-12T10:24:33.444Z,12.52
2019-02-12T10:28:22.935Z,13.14
2019-02-12T10:31:42.687Z,13.53
2019-02-12T10:34:49.541Z,13.52
2019-02-12T10:37:55.316Z,12.92
2019-02-12T10:41:01.430Z,13.15
2019-02-12T10:44:07.383Z,13.35
2019-02-12T10:47:13.340Z,13.45
2019-02-12T10:50:19.191Z,13.56
2019-02-12T10:53:25.001Z,13.09
2019-02-12T10:56:30.923Z,12.80
2019-02-12T10:59:36.680Z,12.27
2019-02-12T11:02:42.592Z,12.28
2019-02-12T11:05:48.520Z,12.09
2019-02-12T11:08:54.316Z,12.09
2019-02-12T11:12:00.240Z,12.07
2019-02-12T11:15:07.778Z,12.08
2019-02-12T11:18:13.556Z,12.06
2019-02-12T11:21:19.326Z,12.04
2019-02-12T11:24:25.081Z,12.13
2019-02-12T11:27:30.860Z,12.49
2019-02-12T11:30:36.709Z,12.44
2019-02-12T11:33:42.489Z,12.22
2019-02-12T11:36:48.227Z,12.39
2019-02-12T11:39:53.989Z,12.36
2019-02-12T11:42:59.792Z,12.40
2019-02-12T11:46:05.670Z,12.35
2019-02-12T11:49:11.451Z,11.91
2019-02-12T11:52:17.201Z,11.87
2019-02-12T11:55:22.963Z,11.85
2019-02-12T11:58:28.777Z,11.65
2019-02-12T12:01:34.556Z,11.88
2019-02-12T12:04:40.350Z,11.77
2019-02-12T12:07:46.112Z,11.70
2019-02-12T12:10:51.864Z,11.60
2019-02-12T12:13:57.725Z,11.54
2019-02-12T12:17:03.499Z,11.75
2019-02-12T12:20:10.605Z,11.68
2019-02-12T12:23:16.368Z,11.69
2019-02-12T12:26:22.123Z,11.61
2019-02-12T12:29:27.867Z,11.51
2019-02-12T12:32:33.626Z,11.64
2019-02-12T12:35:39.430Z,11.59
2019-02-12T12:38:45.181Z,11.49
2019-02-12T12:41:50.979Z,11.46
2019-02-12T12:44:56.746Z,11.35
2019-02-12T12:48:02.685Z,11.37
2019-02-12T12:51:08.468Z,11.47
2019-02-12T12:54:14.270Z,11.34
2019-02-12T12:57:20.088Z,11.30
2019-02-12T13:00:25.953Z,11.28
2019-02-12T13:03:31.842Z,11.12
2019-02-12T13:06:37.666Z,11.11
2019-02-12T13:09:43.443Z,11.14
2019-02-12T13:12:49.230Z,10.97
2019-02-12T13:15:55.132Z,10.92
2019-02-12T13:19:00.899Z,10.79
2019-02-12T13:22:06.809Z,10.76
2019-02-12T13:25:12.779Z,10.61
2019-02-12T13:28:18.921Z,10.27
2019-02-12T13:31:24.690Z,10.31
2019-02-12T13:34:30.580Z,10.25
2019-02-12T13:37:36.442Z,10.33
2019-02-12T13:40:42.314Z,10.36
2019-02-12T13:43:48.211Z,10.29
2019-02-12T13:46:54.005Z,10.41
2019-02-12T13:49:59.782Z,10.49
2019-02-12T13:53:05.561Z,10.43
2019-02-12T13:56:11.384Z,10.16
2019-02-12T13:59:17.268Z,10.34
2019-02-12T14:02:23.081Z,9.96
2019-02-12T14:05:28.877Z,10.38
2019-02-12T14:08:34.682Z,10.31
2019-02-12T14:11:40.486Z,10.20
2019-02-12T14:14:46.297Z,10.20
2019-02-12T14:17:52.091Z,9.99
2019-02-12T14:20:58.016Z,9.98
2019-02-12T14:24:03.897Z,9.68
2019-02-12T14:27:09.922Z,9.66
2019-02-12T14:30:15.833Z,9.70
2019-02-12T14:33:21.657Z,9.47
2019-02-12T14:36:27.488Z,9.59
2019-02-12T14:39:33.354Z,9.58
2019-02-12T14:42:39.208Z,9.56
2019-02-12T14:45:45.003Z,9.37
2019-02-12T14:48:50.771Z,9.47
2019-02-12T14:51:56.628Z,9.48
2019-02-12T14:55:02.412Z,9.43
2019-02-12T14:58:08.392Z,9.25
2019-02-12T15:01:14.272Z,9.21
2019-02-12T15:04:20.154Z,9.32
2019-02-12T15:07:26.106Z,9.29
2019-02-12T15:10:31.965Z,9.18
2019-02-12T15:13:41.382Z,9.29
2019-02-12T15:16:47.167Z,9.16
2019-02-12T15:19:53.128Z,9.22
2019-02-12T15:22:58.922Z,9.11
2019-02-12T15:26:04.843Z,9.00
2019-02-12T15:29:10.637Z,8.93
2019-02-12T15:32:16.459Z,9.06
2019-02-12T15:35:22.348Z,8.76
2019-02-12T15:38:28.133Z,8.98
2019-02-12T15:41:34.054Z,8.86
2019-02-12T15:44:39.878Z,8.85
2019-02-12T15:47:45.795Z,8.91
2019-02-12T15:50:51.783Z,8.73
2019-02-12T15:53:57.621Z,8.52
2019-02-12T15:57:03.450Z,8.82
2019-02-12T16:00:15.673Z,8.62
2019-02-12T16:03:22.568Z,8.96
2019-02-12T16:06:28.364Z,8.93
2019-02-12T16:09:35.081Z,8.70
2019-02-12T16:12:41.081Z,8.68
2019-02-12T16:15:47.175Z,8.59
2019-02-12T16:18:53.071Z,8.69
2019-02-12T16:21:58.923Z,8.67
2019-02-12T16:25:04.990Z,8.75
2019-02-12T16:28:10.827Z,8.67
2019-02-12T16:31:18.567Z,8.69
2019-02-12T16:34:24.302Z,8.41
2019-02-12T16:37:30.129Z,8.67
2019-02-12T16:40:35.953Z,8.72
2019-02-12T16:43:41.747Z,8.57
2019-02-12T16:46:47.604Z,8.72
2019-02-12T16:49:53.364Z,8.46
2019-02-12T16:52:59.277Z,8.60
2019-02-12T16:56:08.371Z,8.59
2019-02-12T16:59:12.738Z,8.49
2019-02-12T17:02:18.664Z,8.43
2019-02-12T17:05:24.463Z,8.24
2019-02-12T17:08:30.258Z,8.35
2019-02-12T17:11:36.059Z,8.22
2019-02-12T17:14:41.976Z,8.47
2019-02-12T17:17:47.748Z,8.41
2019-02-12T17:20:53.553Z,8.24
2019-02-12T17:23:59.698Z,8.40
2019-02-12T17:27:05.613Z,8.44
2019-02-12T17:30:12.932Z,8.18
2019-02-12T17:33:19.713Z,8.08
2019-02-12T17:36:25.607Z,7.93
2019-02-12T17:39:31.465Z,7.96
2019-02-12T17:42:37.284Z,7.82
2019-02-12T17:45:43.246Z,7.89
2019-02-12T17:48:49.143Z,7.59
2019-02-12T17:51:56.371Z,7.48
2019-02-12T17:55:02.278Z,7.61
2019-02-12T17:58:08.023Z,7.51
2019-02-12T18:01:14.007Z,7.61
2019-02-12T18:04:22.073Z,7.72
2019-02-12T18:07:27.874Z,7.78
2019-02-12T18:10:33.880Z,7.67
2019-02-12T18:13:39.850Z,7.73
2019-02-12T18:16:45.697Z,7.82
2019-02-12T18:19:52.371Z,7.74
2019-02-12T18:23:00.134Z,7.52
2019-02-12T18:26:05.957Z,7.52
2019-02-12T18:29:11.809Z,7.40
2019-02-12T18:32:19.309Z,7.50
2019-02-12T18:35:25.127Z,7.41
2019-02-12T18:38:30.965Z,7.32
2019-02-12T18:41:38.552Z,7.42
2019-02-12T18:44:44.387Z,6.99
2019-02-12T18:47:52.797Z,7.13
2019-02-12T18:50:58.599Z,7.04
2019-02-12T18:54:04.490Z,6.88
2019-02-12T18:57:10.421Z,7.00
2019-02-12T19:00:18.811Z,7.08
2019-02-12T19:03:24.721Z,6.74
2019-02-12T19:06:31.607Z,6.61
2019-02-12T19:09:37.383Z,6.93
2019-02-12T19:12:43.160Z,6.70
2019-02-12T19:15:50.483Z,6.73
2019-02-12T19:18:56.428Z,6.86
2019-02-12T19:22:02.839Z,6.59
2019-02-12T19:25:11.167Z,6.84
2019-02-12T19:28:17.447Z,6.85
2019-02-12T19:31:24.481Z,7.03
2019-02-12T19:34:30.312Z,6.74
2019-02-12T19:37:36.339Z,6.93
2019-02-12T19:40:43.076Z,6.85
2019-02-12T19:43:48.954Z,6.72
2019-02-12T19:46:54.842Z,6.66
2019-02-12T19:50:00.647Z,6.79
2019-02-12T19:53:07.837Z,6.88
2019-02-12T19:56:13.691Z,6.98
2019-02-12T19:59:19.566Z,6.89
2019-02-12T20:02:25.394Z,6.69
2019-02-12T20:05:31.189Z,6.91
2019-02-12T20:08:38.412Z,6.80
2019-02-12T20:11:44.569Z,6.42
2019-02-12T20:14:50.365Z,6.69
2019-02-12T20:17:58.806Z,6.70
2019-02-12T20:21:06.277Z,6.73
2019-02-12T20:24:12.186Z,6.77
2019-02-12T20:27:18.021Z,6.60
2019-02-12T20:30:27.435Z,6.71
2019-02-12T20:33:33.323Z,6.57
2019-02-12T20:36:40.359Z,6.77
2019-02-12T20:39:48.852Z,6.79
2019-02-12T20:42:56.127Z,6.90
2019-02-12T20:46:01.985Z,6.72
2019-02-12T20:49:08.092Z,6.47
2019-02-12T20:52:13.990Z,6.48
2019-02-12T20:55:20.043Z,6.67
2019-02-12T20:58:25.970Z,6.40
2019-02-12T21:01:31.894Z,6.48
2019-02-12T21:04:40.240Z,6.76
2019-02-12T21:07:46.207Z,6.37
2019-02-12T21:10:52.050Z,6.59
2019-02-12T21:13:57.855Z,6.57
2019-02-12T21:17:03.665Z,6.75
2019-02-12T21:20:10.652Z,6.03
2019-02-12T21:23:16.610Z,6.00
2019-02-12T21:26:22.502Z,6.46
2019-02-12T21:29:28.257Z,6.34
2019-02-12T21:32:34.042Z,6.39
2019-02-12T21:35:39.781Z,6.55
2019-02-12T21:38:45.552Z,6.53
2019-02-12T21:41:51.370Z,6.37
2019-02-12T21:44:57.139Z,6.47
2019-02-12T21:48:02.981Z,6.40
2019-02-12T21:51:08.782Z,6.50
2019-02-12T21:54:14.725Z,6.58
2019-02-12T21:57:20.613Z,6.64
2019-02-12T22:00:26.507Z,6.64
2019-02-12T22:03:32.342Z,6.47
2019-02-12T22:06:38.120Z,6.47
2019-02-12T22:09:43.897Z,6.60
2019-02-12T22:12:49.758Z,6.68
2019-02-12T22:15:55.576Z,6.70
2019-02-12T22:19:01.335Z,6.56
2019-02-12T22:22:07.202Z,6.62
2019-02-12T22:25:13.127Z,6.27
2019-02-12T22:28:18.897Z,6.62
2019-02-12T22:31:24.719Z,6.13
2019-02-12T22:34:30.504Z,6.35
2019-02-12T22:37:36.330Z,6.29
2019-02-12T22:40:42.131Z,6.39
2019-02-12T22:43:47.924Z,6.45
2019-02-12T22:46:54.715Z,6.03
2019-02-12T22:50:00.583Z,6.17
2019-02-12T22:53:06.371Z,6.33
2019-02-12T22:56:12.179Z,6.42
2019-02-12T22:59:18.003Z,6.20
2019-02-12T23:02:23.961Z,6.19
2019-02-12T23:05:29.928Z,6.36
2019-02-12T23:08:35.823Z,6.14
2019-02-12T23:11:41.616Z,6.21
2019-02-12T23:14:47.486Z,6.32
2019-02-12T23:17:53.288Z,6.24
2019-02-12T23:20:59.096Z,6.40
2019-02-12T23:24:05.025Z,6.35
2019-02-12T23:27:10.897Z,6.58
2019-02-12T23:30:16.798Z,6.35
2019-02-12T23:33:22.569Z,6.27
2019-02-12T23:36:28.475Z,6.63
2019-02-12T23:39:34.283Z,6.59
2019-02-12T23:42:40.078Z,6.28
2019-02-12T23:45:45.903Z,6.16
2019-02-12T23:48:51.694Z,6.24
2019-02-12T23:51:57.484Z,6.31
2019-02-12T23:55:03.275Z,6.12
2019-02-12T23:58:09.137Z,6.46
